createdAt,value
2023-02-17T00:00:41.512Z,28.81
2023-02-17T00:04:17.636Z,28.82
2023-02-17T00:06:09.912Z,28.79
2023-02-17T00:08:40.348Z,28.79
2023-02-17T00:11:10.477Z,28.80
2023-02-17T00:13:40.511Z,28.80
2023-02-17T00:16:12.791Z,28.80
2023-02-17T00:18:43.309Z,28.82
2023-02-17T00:21:27.237Z,28.84
2023-02-17T00:23:58.959Z,28.81
2023-02-17T00:26:28.971Z,28.83
2023-02-17T00:29:01.525Z,28.82
2023-02-17T00:34:19.210Z,28.86
2023-02-17T00:36:49.320Z,28.82
2023-02-17T00:39:20.312Z,28.82
2023-02-17T00:41:53.405Z,28.83
2023-02-17T00:44:27.264Z,28.83
2023-02-17T00:46:57.342Z,28.81
2023-02-17T00:49:30.671Z,28.82
2023-02-17T00:52:04.467Z,28.81
2023-02-17T00:54:36.460Z,28.84
2023-02-17T00:57:07.006Z,28.83
2023-02-17T00:59:37.009Z,28.85
2023-02-17T01:02:06.945Z,28.79
2023-02-17T01:04:38.953Z,28.81
2023-02-17T01:07:09.410Z,28.83
2023-02-17T01:09:39.741Z,28.83
2023-02-17T01:12:09.588Z,28.86
2023-02-17T01:14:40.012Z,28.80
2023-02-17T01:17:10.312Z,28.84
2023-02-17T01:19:40.327Z,28.85
2023-02-17T01:22:10.216Z,28.89
2023-02-17T01:24:41.581Z,28.91
2023-02-17T01:27:12.257Z,28.89
2023-02-17T01:29:42.290Z,28.90
2023-02-17T01:32:12.458Z,28.81
2023-02-17T01:34:44.090Z,28.79
2023-02-17T01:37:14.538Z,28.82
2023-02-17T01:39:44.805Z,28.81
2023-02-17T01:42:23.577Z,28.83
2023-02-17T01:48:35.063Z,28.81
2023-02-17T01:51:12.663Z,28.84
2023-02-17T01:53:45.090Z,28.81
2023-02-17T01:56:17.819Z,28.80
2023-02-17T01:58:56.394Z,28.80
2023-02-17T02:01:26.685Z,28.78
2023-02-17T02:03:56.987Z,28.78
2023-02-17T02:06:30.872Z,28.79
2023-02-17T02:09:25.100Z,28.79
2023-02-17T02:11:55.735Z,28.80
2023-02-17T02:14:26.171Z,28.80
2023-02-17T02:17:05.007Z,28.80
2023-02-17T02:20:04.735Z,28.83
2023-02-17T02:22:40.715Z,28.82
2023-02-17T02:25:29.833Z,28.86
2023-02-17T02:28:19.551Z,28.86
2023-02-17T02:31:02.774Z,28.88
2023-02-17T02:33:50.366Z,28.87
2023-02-17T02:36:44.608Z,28.89
2023-02-17T02:39:23.514Z,28.88
2023-02-17T02:42:01.678Z,28.88
2023-02-17T02:44:31.755Z,28.88
2023-02-17T02:47:05.370Z,28.90
2023-02-17T02:49:40.141Z,28.89
2023-02-17T02:52:18.538Z,28.89
2023-02-17T02:55:07.156Z,28.90
2023-02-17T02:58:01.715Z,28.91
2023-02-17T03:00:35.609Z,28.91
2023-02-17T03:03:13.207Z,28.92
2023-02-17T03:06:20.348Z,28.91
2023-02-17T03:08:58.052Z,28.92
2023-02-17T03:11:34.874Z,28.94
2023-02-17T03:14:19.674Z,28.94
2023-02-17T03:16:50.941Z,28.94
2023-02-17T03:19:24.457Z,28.94
2023-02-17T03:22:31.370Z,28.96
2023-02-17T03:25:03.367Z,28.97
2023-02-17T03:27:33.763Z,28.96
2023-02-17T03:30:03.939Z,28.98
2023-02-17T03:32:33.824Z,28.97
2023-02-17T13:53:00.745Z,28.63
2023-02-17T13:55:31.577Z,28.62
2023-02-17T13:58:02.767Z,28.63
2023-02-17T14:00:34.577Z,28.64
2023-02-17T14:03:14.740Z,28.62
2023-02-17T14:05:50.351Z,28.68
2023-02-17T14:08:22.986Z,28.69
2023-02-17T14:10:53.560Z,28.68
2023-02-17T14:13:25.936Z,28.70
2023-02-17T14:16:01.782Z,28.66
2023-02-17T14:18:37.214Z,28.66
2023-02-17T14:21:11.189Z,28.67
2023-02-17T14:24:00.864Z,28.66
2023-02-17T14:26:50.512Z,28.68
2023-02-17T14:29:20.966Z,28.68
2023-02-17T14:31:54.737Z,28.68
2023-02-17T14:34:33.286Z,28.74
2023-02-17T14:37:27.098Z,28.73
2023-02-17T14:39:57.287Z,28.75
2023-02-17T14:42:27.256Z,28.78
2023-02-17T14:44:57.259Z,28.80
2023-02-17T14:47:27.227Z,28.76
2023-02-17T14:49:57.289Z,28.74
2023-02-17T14:52:27.624Z,28.80
2023-02-17T14:54:57.820Z,28.83
2023-02-17T14:57:30.569Z,28.83
2023-02-17T15:00:00.824Z,28.90
2023-02-17T15:02:32.569Z,28.90
2023-02-17T15:05:02.814Z,28.92
2023-02-17T15:07:32.978Z,28.94
2023-02-17T15:10:03.207Z,28.95
2023-02-17T15:12:33.545Z,28.93
2023-02-17T15:15:04.834Z,28.97
2023-02-17T15:17:37.711Z,28.96
2023-02-17T15:20:08.379Z,29.00
2023-02-17T15:22:43.817Z,29.01
2023-02-17T15:25:24.529Z,29.02
2023-02-17T15:27:54.821Z,29.03
2023-02-17T15:30:26.884Z,29.02
2023-02-17T15:32:59.510Z,29.06
2023-02-17T15:35:30.895Z,29.07
2023-02-17T15:38:00.807Z,29.07
2023-02-17T15:40:32.422Z,29.04
2023-02-17T15:43:04.291Z,29.05
2023-02-17T15:45:36.726Z,29.07
2023-02-17T15:48:29.417Z,29.05
2023-02-17T15:50:59.624Z,29.04
2023-02-17T15:53:34.729Z,29.06
2023-02-17T15:56:07.876Z,29.00
2023-02-17T15:58:38.828Z,29.01
2023-02-17T16:01:09.181Z,29.00
2023-02-17T16:03:40.483Z,29.00
2023-02-17T16:06:11.233Z,29.00
2023-02-17T16:08:42.324Z,29.00
2023-02-17T16:11:17.053Z,28.99
2023-02-17T16:13:48.893Z,28.98
2023-02-17T16:16:22.907Z,28.95
2023-02-17T16:18:54.484Z,28.97
2023-02-17T16:21:27.430Z,28.97
2023-02-17T16:24:01.968Z,28.95
2023-02-17T16:26:36.158Z,28.96
2023-02-17T16:29:17.664Z,28.95
2023-02-17T16:31:51.047Z,28.94
2023-02-17T16:34:26.911Z,28.92
2023-02-17T16:37:01.792Z,28.93
2023-02-17T16:39:32.765Z,28.92
2023-02-17T16:42:05.021Z,28.92
2023-02-17T16:44:35.314Z,28.91
2023-02-17T16:47:05.681Z,28.89
2023-02-17T16:49:41.530Z,28.90
2023-02-17T16:52:27.384Z,28.87
2023-02-17T16:54:57.981Z,28.89
2023-02-17T16:57:28.752Z,28.86
2023-02-17T16:59:59.184Z,28.88
2023-02-17T17:02:33.349Z,28.86
2023-02-17T17:05:03.440Z,28.83
2023-02-17T17:07:34.764Z,28.84
2023-02-17T17:10:16.296Z,28.84
2023-02-17T17:12:48.506Z,28.85
2023-02-17T17:15:19.763Z,28.82
2023-02-17T17:18:09.775Z,28.82
2023-02-17T17:20:42.145Z,28.82
2023-02-17T17:23:16.898Z,28.84
2023-02-17T17:25:48.973Z,28.84
2023-02-17T17:28:21.046Z,28.86
2023-02-17T17:30:53.557Z,28.85
2023-02-17T17:33:23.717Z,28.85
2023-02-17T17:35:56.020Z,28.84
2023-02-17T17:38:26.142Z,28.79
2023-02-17T17:40:58.941Z,28.78
2023-02-17T17:43:29.443Z,28.76
2023-02-17T17:46:02.459Z,28.76
2023-02-17T17:48:32.664Z,28.77
2023-02-17T17:51:04.366Z,28.74
2023-02-17T17:53:34.767Z,28.75
2023-02-17T17:56:05.213Z,28.74
2023-02-17T17:58:39.766Z,28.76
2023-02-17T18:01:10.002Z,28.76
2023-02-17T18:03:40.375Z,28.71
2023-02-17T18:06:17.870Z,28.73
2023-02-17T18:08:51.383Z,28.72
2023-02-17T18:11:23.788Z,28.72
2023-02-17T18:13:57.524Z,28.74
2023-02-17T18:16:29.603Z,28.75
2023-02-17T18:19:02.249Z,28.77
2023-02-17T18:21:32.705Z,28.78
2023-02-17T18:24:02.761Z,28.74
2023-02-17T18:26:33.453Z,28.72
2023-02-17T18:29:03.992Z,28.77
2023-02-17T18:31:34.240Z,28.74
2023-02-17T18:34:04.616Z,28.70
2023-02-17T18:36:37.523Z,28.72
2023-02-17T18:39:08.187Z,28.74
2023-02-17T18:41:38.590Z,28.70
2023-02-17T18:44:08.816Z,28.74
2023-02-17T18:46:40.109Z,28.77
2023-02-17T18:49:11.611Z,28.72
2023-02-17T18:51:41.970Z,28.75
2023-02-17T18:54:13.302Z,28.73
2023-02-17T18:56:46.136Z,28.74
2023-02-17T18:59:16.244Z,28.77
2023-02-17T19:01:46.436Z,28.74
2023-02-17T19:04:17.699Z,28.74
2023-02-17T19:06:47.814Z,28.72
2023-02-17T19:09:18.264Z,28.75
2023-02-17T19:11:49.067Z,28.71
2023-02-17T19:14:19.260Z,28.74
2023-02-17T19:19:38.399Z,28.72
2023-02-17T19:22:10.858Z,28.74
2023-02-17T19:24:42.561Z,28.72
2023-02-17T19:27:14.222Z,28.72
2023-02-17T19:29:44.305Z,28.71
2023-02-17T19:32:14.494Z,28.68
2023-02-17T19:34:44.526Z,28.68
2023-02-17T19:37:14.635Z,28.68
2023-02-17T19:39:44.590Z,28.68
2023-02-17T19:42:14.560Z,28.66
2023-02-17T19:44:44.801Z,28.66
2023-02-17T19:47:17.808Z,28.67
2023-02-17T19:52:40.433Z,28.65
2023-02-17T19:55:13.756Z,28.64
2023-02-17T19:57:44.124Z,28.64
2023-02-17T20:00:14.613Z,28.65
2023-02-17T20:02:44.648Z,28.63
2023-02-17T20:05:14.754Z,28.64
2023-02-17T20:07:46.302Z,28.69
2023-02-17T20:10:16.814Z,28.66
2023-02-17T20:12:47.142Z,28.68
2023-02-17T20:15:18.320Z,28.66
2023-02-17T20:17:48.468Z,28.72
2023-02-17T20:20:18.807Z,28.72
2023-02-17T20:22:48.833Z,28.69
2023-02-17T20:25:21.007Z,28.68
2023-02-17T20:27:51.086Z,28.70
2023-02-17T20:30:21.178Z,28.68
2023-02-17T20:32:52.766Z,28.70
2023-02-17T20:35:23.173Z,28.67
2023-02-17T20:37:52.988Z,28.69
2023-02-17T20:40:23.994Z,28.66
2023-02-17T20:42:54.008Z,28.66
2023-02-17T20:45:23.890Z,28.65
2023-02-17T20:47:54.112Z,28.62
2023-02-17T20:50:24.728Z,28.63
2023-02-17T20:52:54.733Z,28.65
2023-02-17T20:55:26.958Z,28.66
2023-02-17T20:57:58.024Z,28.63
2023-02-17T21:00:29.162Z,28.67
2023-02-17T21:03:00.021Z,28.64
2023-02-17T21:05:30.093Z,28.66
2023-02-17T21:08:00.770Z,28.63
2023-02-17T21:10:33.092Z,28.64
2023-02-17T21:13:03.825Z,28.63
2023-02-17T21:15:34.493Z,28.64
2023-02-17T21:18:04.551Z,28.61
2023-02-17T21:20:34.464Z,28.63
2023-02-17T21:23:04.301Z,28.64
2023-02-17T21:25:34.160Z,28.64
2023-02-17T21:28:03.968Z,28.60
2023-02-17T21:30:33.878Z,28.63
2023-02-17T21:33:03.803Z,28.63
2023-02-17T21:35:34.839Z,28.67
2023-02-17T21:38:04.876Z,28.65
2023-02-17T21:40:34.712Z,28.58
2023-02-17T21:43:22.990Z,28.59
2023-02-17T21:45:53.155Z,28.56
2023-02-17T21:48:24.507Z,28.57
2023-02-17T21:50:54.574Z,28.52
2023-02-17T21:53:24.409Z,28.59
2023-02-17T21:55:54.304Z,28.56
2023-02-17T21:58:24.625Z,28.56
2023-02-17T22:00:54.723Z,28.55
2023-02-17T22:03:25.014Z,28.55
2023-02-17T22:05:55.330Z,28.55
2023-02-17T22:08:26.565Z,28.59
2023-02-17T22:11:01.986Z,28.61
2023-02-17T22:14:05.264Z,28.61
2023-02-17T22:16:25.777Z,28.62
2023-02-17T22:19:02.961Z,28.62
2023-02-17T22:21:33.207Z,28.57
2023-02-17T22:24:04.154Z,28.55
2023-02-17T22:26:37.566Z,28.56
2023-02-17T22:29:08.092Z,28.56
2023-02-17T22:31:40.346Z,28.53
2023-02-17T22:34:12.555Z,28.57
2023-02-17T22:39:25.872Z,28.54
2023-02-17T22:41:56.467Z,28.54
2023-02-17T22:44:26.549Z,28.55
2023-02-17T22:47:01.122Z,28.54
2023-02-17T22:49:31.246Z,28.57
2023-02-17T22:52:01.145Z,28.57
2023-02-17T22:54:33.468Z,28.54
2023-02-17T22:57:03.704Z,28.54
2023-02-17T22:59:33.771Z,28.55
2023-02-17T23:02:03.636Z,28.57
2023-02-17T23:04:33.735Z,28.57
2023-02-17T23:07:03.685Z,28.62
2023-02-17T23:09:33.689Z,28.62
2023-02-17T23:12:03.722Z,28.61
2023-02-17T23:14:39.403Z,28.60
2023-02-17T23:17:12.840Z,28.59
2023-02-17T23:19:44.816Z,28.59
2023-02-17T23:22:18.930Z,28.57
2023-02-17T23:24:49.952Z,28.60
2023-02-17T23:27:20.104Z,28.59
2023-02-17T23:29:50.497Z,28.57
2023-02-17T23:32:20.937Z,28.57
2023-02-17T23:34:51.052Z,28.64
2023-02-17T23:37:21.666Z,28.56
2023-02-17T23:39:51.665Z,28.59
2023-02-17T23:42:22.457Z,28.53
2023-02-17T23:44:52.525Z,28.51
2023-02-17T23:47:22.422Z,28.51
2023-02-17T23:49:52.380Z,28.46
2023-02-17T23:52:22.301Z,28.49
2023-02-17T23:54:52.909Z,28.49
2023-02-17T23:57:24.134Z,28.51
2023-02-17T23:59:54.527Z,28.49
